createdAt,value
2023-03-01T00:01:41.284Z,32.80
2023-03-01T00:06:48.903Z,47.70
2023-03-01T00:11:52.770Z,44.10
2023-03-01T00:16:56.634Z,43.70
2023-03-01T00:22:00.424Z,41.80
2023-03-01T00:27:04.330Z,34.70
2023-03-01T00:32:08.612Z,36.50
2023-03-01T00:37:12.692Z,31.00
2023-03-01T00:42:17.978Z,31.20
2023-03-01T00:47:21.885Z,30.50
2023-03-01T00:52:25.801Z,29.70
2023-03-01T00:57:30.274Z,29.10
2023-03-01T01:02:35.210Z,34.30
2023-03-01T01:07:39.388Z,37.30
2023-03-01T01:12:48.522Z,38.60
2023-03-01T01:17:52.391Z,34.40
2023-03-01T01:22:56.159Z,33.70
2023-03-01T01:28:01.029Z,33.10
2023-03-01T01:33:04.725Z,33.30
2023-03-01T01:38:08.648Z,34.90
2023-03-01T01:43:29.059Z,35.70
2023-03-01T01:48:46.924Z,46.00
2023-03-01T01:53:55.268Z,53.40
2023-03-01T01:58:59.179Z,42.80
2023-03-01T02:04:03.077Z,39.80
2023-03-01T02:09:12.120Z,41.30
2023-03-01T02:14:17.163Z,39.40
2023-03-01T02:19:44.581Z,39.20
2023-03-01T02:25:06.579Z,40.50
2023-03-01T02:30:13.641Z,34.90
2023-03-01T02:35:19.539Z,39.80
2023-03-01T02:40:23.248Z,39.70
2023-03-01T02:45:28.350Z,36.50
2023-03-01T02:50:32.036Z,37.10
2023-03-01T02:55:35.828Z,37.70
2023-03-01T03:00:48.228Z,38.10
2023-03-01T03:05:53.430Z,37.40
2023-03-01T03:10:57.478Z,38.00
2023-03-01T03:16:05.011Z,40.60
2023-03-01T03:21:13.945Z,47.20
2023-03-01T03:26:25.207Z,42.70
2023-03-01T03:31:30.005Z,42.50
2023-03-01T03:36:34.405Z,45.40
2023-03-01T03:41:38.157Z,48.80
2023-03-01T03:46:41.805Z,47.70
2023-03-01T03:51:47.798Z,42.60
2023-03-01T03:56:51.392Z,41.30
2023-03-01T04:01:55.153Z,41.70
2023-03-01T04:06:58.885Z,42.70
2023-03-01T04:12:02.460Z,47.40
2023-03-01T04:17:07.204Z,45.50
2023-03-01T04:22:12.556Z,47.30
2023-03-01T04:27:16.387Z,42.40
2023-03-01T04:32:21.703Z,52.60
2023-03-01T04:37:27.131Z,44.80
2023-03-01T04:42:31.295Z,43.50
2023-03-01T04:47:39.265Z,38.90
2023-03-01T04:52:46.242Z,42.40
2023-03-01T04:57:49.918Z,42.70
2023-03-01T05:02:56.743Z,44.00
2023-03-01T05:08:03.470Z,41.20
2023-03-01T05:13:07.896Z,40.50
2023-03-01T05:18:12.714Z,40.10
2023-03-01T05:23:17.334Z,37.40
2023-03-01T05:28:21.857Z,39.80
2023-03-01T05:33:26.599Z,40.80
2023-03-01T05:38:30.292Z,50.40
2023-03-01T05:43:36.632Z,59.60
2023-03-01T05:48:41.041Z,50.90
2023-03-01T05:53:45.747Z,44.60
2023-03-01T05:58:51.147Z,51.00
2023-03-01T06:03:55.332Z,46.90
2023-03-01T06:08:59.013Z,46.40
2023-03-01T06:14:03.072Z,45.00
2023-03-01T06:19:06.862Z,48.20
2023-03-01T06:24:10.654Z,43.40
2023-03-01T06:29:15.022Z,45.50
2023-03-01T06:34:18.724Z,41.80
2023-03-01T06:39:23.955Z,43.00
2023-03-01T06:44:28.407Z,39.60
2023-03-01T06:49:32.072Z,61.40
2023-03-01T06:54:35.662Z,53.90
2023-03-01T06:59:39.376Z,52.30
2023-03-01T07:04:43.822Z,59.10
2023-03-01T07:09:50.847Z,52.30
2023-03-01T07:14:55.088Z,46.70
2023-03-01T07:19:58.825Z,57.80
2023-03-01T07:25:05.596Z,44.60
2023-03-01T07:30:12.354Z,53.70
2023-03-01T07:35:17.216Z,41.60
2023-03-01T07:40:23.260Z,42.20
2023-03-01T07:45:27.644Z,40.60
2023-03-01T07:50:32.294Z,38.30
2023-03-01T07:55:37.714Z,35.30
2023-03-01T08:00:41.672Z,35.10
2023-03-01T08:05:47.786Z,33.90
2023-03-01T08:10:53.617Z,35.10
2023-03-01T08:16:12.508Z,33.90
2023-03-01T08:21:21.097Z,34.00
2023-03-01T08:26:25.331Z,32.50
2023-03-01T08:31:38.072Z,34.90
2023-03-01T08:36:45.783Z,32.70
2023-03-01T08:41:50.596Z,34.70
2023-03-01T08:46:55.933Z,33.00
2023-03-01T08:52:02.398Z,28.80
2023-03-01T08:57:06.919Z,23.80
2023-03-01T09:02:17.226Z,24.00
2023-03-01T09:07:21.789Z,24.80
2023-03-01T09:12:27.572Z,22.10
2023-03-01T09:17:31.636Z,23.60
2023-03-01T09:22:37.006Z,22.60
2023-03-01T09:27:41.091Z,22.20
2023-03-01T09:32:46.129Z,20.50
2023-03-01T09:37:52.343Z,20.30
2023-03-01T09:43:07.585Z,17.10
2023-03-01T09:48:27.606Z,22.00
2023-03-01T09:53:37.895Z,20.10
2023-03-01T09:59:01.043Z,20.90
2023-03-01T10:04:29.857Z,20.10
2023-03-01T10:09:36.547Z,19.90
2023-03-01T10:14:59.585Z,17.70
2023-03-01T10:20:25.205Z,17.10
2023-03-01T10:25:41.812Z,16.10
2023-03-01T10:30:47.305Z,16.70
2023-03-01T10:35:51.891Z,17.30
2023-03-01T10:41:02.725Z,15.80
2023-03-01T10:46:29.288Z,14.90
2023-03-01T10:51:36.168Z,14.10
2023-03-01T10:57:01.941Z,15.20
2023-03-01T11:02:31.940Z,13.50
2023-03-01T11:07:55.321Z,17.50
2023-03-01T11:13:27.162Z,15.60
2023-03-01T11:18:46.289Z,17.80
2023-03-01T11:23:56.076Z,16.80
2023-03-01T11:29:04.173Z,15.30
2023-03-01T11:34:20.641Z,16.30
2023-03-01T11:39:53.846Z,14.90
2023-03-01T11:45:01.501Z,12.80
2023-03-01T11:50:16.756Z,9.80
2023-03-01T11:55:48.848Z,11.10
2023-03-01T12:01:15.504Z,8.50
2023-03-01T12:06:29.081Z,10.40
2023-03-01T12:11:53.048Z,7.00
2023-03-01T12:17:07.260Z,8.40
2023-03-01T12:22:27.326Z,8.60
2023-03-01T12:27:47.573Z,8.90
2023-03-01T12:33:25.475Z,9.60
2023-03-01T12:38:51.744Z,10.60
2023-03-01T12:44:07.431Z,10.20
2023-03-01T12:49:21.044Z,12.20
2023-03-01T12:54:30.247Z,13.10
2023-03-01T13:00:10.328Z,31.20
2023-03-01T13:05:35.435Z,72.40
2023-03-01T13:10:55.962Z,16.70
2023-03-01T13:16:23.031Z,12.60
2023-03-01T13:21:33.261Z,12.30
2023-03-01T13:27:09.526Z,12.30
2023-03-01T13:32:44.514Z,12.50
2023-03-01T13:37:49.189Z,12.70
2023-03-01T13:43:04.693Z,13.00
2023-03-01T13:48:20.683Z,12.80
2023-03-01T13:53:27.888Z,12.90
2023-03-01T13:58:35.665Z,11.80
2023-03-01T14:03:44.005Z,12.20
2023-03-01T14:08:50.572Z,12.20
2023-03-01T14:14:16.585Z,12.20
2023-03-01T14:19:34.702Z,12.10
2023-03-01T14:24:42.432Z,16.40
2023-03-01T14:29:57.229Z,13.10
2023-03-01T14:35:01.798Z,12.30
2023-03-01T14:40:06.613Z,12.40
2023-03-01T14:45:14.338Z,13.40
2023-03-01T14:50:43.311Z,13.80
2023-03-01T14:56:01.703Z,12.80
2023-03-01T15:01:06.326Z,12.40
2023-03-01T15:06:10.688Z,12.90
2023-03-01T15:11:30.944Z,12.20
2023-03-01T15:16:35.809Z,12.40
2023-03-01T15:21:41.134Z,12.20
2023-03-01T15:26:53.024Z,12.80
2023-03-01T15:31:59.941Z,12.10
2023-03-01T15:37:07.250Z,13.10
2023-03-01T15:42:32.526Z,12.50
2023-03-01T15:47:37.797Z,13.60
2023-03-01T15:52:42.925Z,12.90
2023-03-01T15:57:47.918Z,12.70
2023-03-01T16:02:52.214Z,15.10
2023-03-01T16:08:01.085Z,19.30
2023-03-01T16:13:05.857Z,16.20
2023-03-01T16:18:12.421Z,17.90
2023-03-01T16:23:22.263Z,20.40
2023-03-01T16:28:29.308Z,27.90
2023-03-01T16:33:36.262Z,39.90
2023-03-01T16:38:42.892Z,50.00
2023-03-01T16:43:52.686Z,33.30
2023-03-01T16:48:58.329Z,27.70
2023-03-01T16:54:05.988Z,21.80
2023-03-01T16:59:10.773Z,23.40
2023-03-01T17:04:15.562Z,25.00
2023-03-01T17:09:30.596Z,25.60
2023-03-01T17:14:40.326Z,27.60
2023-03-01T17:19:46.181Z,25.20
2023-03-01T17:24:50.804Z,24.90
2023-03-01T17:29:59.949Z,25.30
2023-03-01T17:35:06.961Z,23.40
2023-03-01T17:40:15.524Z,21.20
2023-03-01T17:45:20.514Z,20.10
2023-03-01T17:50:26.919Z,22.40
2023-03-01T17:55:35.467Z,21.40
2023-03-01T18:00:40.722Z,16.60
2023-03-01T18:05:45.466Z,27.10
2023-03-01T18:11:00.661Z,33.60
2023-03-01T18:16:10.602Z,47.40
2023-03-01T18:21:19.039Z,43.80
2023-03-01T18:26:25.604Z,35.10
2023-03-01T18:31:34.122Z,21.10
2023-03-01T18:36:41.400Z,19.10
2023-03-01T18:41:48.402Z,17.30
2023-03-01T18:46:58.672Z,16.10
2023-03-01T18:52:06.483Z,23.70
2023-03-01T18:57:13.104Z,21.20
2023-03-01T19:02:17.852Z,20.60
2023-03-01T19:07:23.001Z,20.40
2023-03-01T19:12:29.482Z,21.00
2023-03-01T19:17:37.517Z,22.60
2023-03-01T19:22:43.558Z,40.30
2023-03-01T19:27:50.087Z,50.60
2023-03-01T19:32:58.635Z,40.40
2023-03-01T19:38:06.545Z,35.30
2023-03-01T19:43:12.576Z,35.60
2023-03-01T19:48:20.742Z,33.50
2023-03-01T19:53:30.603Z,189.00
2023-03-01T19:58:39.356Z,249.30
2023-03-01T20:03:44.568Z,267.60
2023-03-01T20:08:52.215Z,424.00
2023-03-01T20:13:59.959Z,278.70
2023-03-01T20:19:08.660Z,148.10
2023-03-01T20:24:14.785Z,94.10
2023-03-01T20:29:21.055Z,74.50
2023-03-01T20:34:28.218Z,75.20
2023-03-01T20:39:34.914Z,65.90
2023-03-01T20:44:44.999Z,72.10
2023-03-01T20:49:53.319Z,78.00
2023-03-01T20:54:58.935Z,38.00
2023-03-01T21:00:05.678Z,43.80
2023-03-01T21:05:11.101Z,143.20
2023-03-01T21:10:20.208Z,147.30
2023-03-01T21:15:32.281Z,203.70
2023-03-01T21:20:43.142Z,92.80
2023-03-01T21:25:48.762Z,86.70
2023-03-01T21:30:52.547Z,84.70
2023-03-01T21:36:04.534Z,68.10
2023-03-01T21:41:16.680Z,98.70
2023-03-01T21:46:25.979Z,92.90
2023-03-01T21:51:30.896Z,90.50
2023-03-01T21:56:39.340Z,81.60
2023-03-01T22:01:43.561Z,80.70
2023-03-01T22:06:47.907Z,79.70
2023-03-01T22:11:54.943Z,79.50
2023-03-01T22:16:59.536Z,73.70
2023-03-01T22:22:04.091Z,60.70
2023-03-01T22:27:07.921Z,52.90
2023-03-01T22:32:11.834Z,59.00
2023-03-01T22:37:16.982Z,62.20
2023-03-01T22:42:20.679Z,66.00
2023-03-01T22:47:24.376Z,66.70
2023-03-01T22:52:28.180Z,71.20
2023-03-01T22:57:32.054Z,96.30
2023-03-01T23:02:38.337Z,63.90
2023-03-01T23:07:42.372Z,63.50
2023-03-01T23:12:46.278Z,59.50
2023-03-01T23:17:50.221Z,56.30
2023-03-01T23:22:53.910Z,50.30
2023-03-01T23:27:57.501Z,53.40
2023-03-01T23:33:01.396Z,52.20
2023-03-01T23:38:05.357Z,54.30
2023-03-01T23:43:08.931Z,48.70
2023-03-01T23:48:13.833Z,49.70
2023-03-01T23:53:19.019Z,55.20
2023-03-01T23:58:28.812Z,57.70
